createdAt,value
2023-05-18T00:00:47.601Z,7.88
2023-05-18T00:01:56.230Z,7.88
2023-05-18T00:02:59.113Z,7.88
2023-05-18T00:04:02.170Z,7.88
2023-05-18T00:05:05.193Z,7.87
2023-05-18T00:06:07.930Z,7.87
2023-05-18T00:07:10.812Z,7.86
2023-05-18T00:08:13.590Z,7.85
2023-05-18T00:09:16.320Z,7.84
2023-05-18T00:10:19.065Z,7.83
2023-05-18T00:11:21.920Z,7.82
2023-05-18T00:12:24.622Z,7.84
2023-05-18T00:13:27.335Z,7.84
2023-05-18T00:14:30.644Z,7.84
2023-05-18T00:15:33.381Z,7.84
2023-05-18T00:16:36.118Z,7.83
2023-05-18T00:17:38.973Z,7.83
2023-05-18T00:18:41.899Z,7.82
2023-05-18T00:19:46.659Z,7.81
2023-05-18T00:20:50.764Z,7.82
2023-05-18T00:21:55.936Z,7.81
2023-05-18T00:22:58.668Z,7.81
2023-05-18T00:24:01.705Z,7.80
2023-05-18T00:25:05.029Z,7.78
2023-05-18T00:26:07.735Z,7.77
2023-05-18T00:27:10.516Z,7.76
2023-05-18T00:28:13.311Z,7.76
2023-05-18T00:29:16.112Z,7.76
2023-05-18T00:30:19.062Z,7.76
2023-05-18T00:31:21.917Z,7.75
2023-05-18T00:32:24.647Z,7.75
2023-05-18T00:33:27.726Z,7.75
2023-05-18T00:34:30.423Z,7.74
2023-05-18T00:35:33.170Z,7.74
2023-05-18T00:36:36.682Z,7.73
2023-05-18T00:37:39.394Z,7.73
2023-05-18T00:38:42.185Z,7.73
2023-05-18T00:39:45.077Z,7.73
2023-05-18T00:40:48.065Z,7.72
2023-05-18T00:41:50.815Z,7.70
2023-05-18T00:42:54.255Z,7.69
2023-05-18T00:43:57.521Z,7.69
2023-05-18T00:45:00.758Z,7.69
2023-05-18T00:46:03.531Z,7.70
2023-05-18T00:47:06.412Z,7.72
2023-05-18T00:48:09.154Z,7.71
2023-05-18T00:49:12.035Z,7.72
2023-05-18T00:50:15.106Z,7.72
2023-05-18T00:51:18.558Z,7.72
2023-05-18T00:52:21.962Z,7.71
2023-05-18T00:53:24.653Z,7.72
2023-05-18T00:54:27.448Z,7.73
2023-05-18T00:55:30.704Z,7.71
2023-05-18T00:56:34.405Z,7.70
2023-05-18T00:57:38.362Z,7.69
2023-05-18T00:58:42.006Z,7.69
2023-05-18T00:59:46.089Z,7.69
2023-05-18T01:00:48.824Z,7.70
2023-05-18T01:01:51.503Z,7.71
2023-05-18T01:02:54.492Z,7.71
2023-05-18T01:03:58.246Z,7.72
2023-05-18T01:05:03.481Z,7.71
2023-05-18T01:06:08.460Z,7.70
2023-05-18T01:07:11.270Z,7.69
2023-05-18T01:08:14.061Z,7.69
2023-05-18T01:09:19.592Z,7.68
2023-05-18T01:10:24.898Z,7.67
2023-05-18T01:11:30.610Z,7.66
2023-05-18T01:12:37.437Z,7.66
2023-05-18T01:13:58.664Z,7.65
2023-05-18T01:15:04.559Z,7.63
2023-05-18T01:16:09.842Z,7.63
2023-05-18T01:17:33.602Z,7.61
2023-05-18T01:18:46.984Z,7.59
2023-05-18T01:19:52.404Z,7.56
2023-05-18T01:21:22.028Z,7.54
2023-05-18T01:22:34.114Z,7.52
2023-05-18T01:23:36.870Z,7.50
2023-05-18T01:24:43.030Z,7.50
2023-05-18T01:25:54.767Z,7.51
2023-05-18T01:26:59.932Z,7.51
2023-05-18T01:28:06.545Z,7.52
2023-05-18T01:29:11.549Z,7.52
2023-05-18T01:30:16.019Z,7.53
2023-05-18T01:33:01.158Z,7.52
2023-05-18T01:34:04.781Z,7.51
2023-05-18T01:35:07.777Z,7.50
2023-05-18T01:36:11.356Z,7.49
2023-05-18T01:37:14.398Z,7.49
2023-05-18T02:14:14.106Z,7.38
2023-05-18T02:15:17.448Z,7.37
2023-05-18T02:16:20.247Z,7.37
2023-05-18T02:17:26.069Z,7.37
2023-05-18T03:15:57.811Z,7.54
2023-05-18T03:17:01.590Z,7.55
2023-05-18T03:18:05.117Z,7.56
2023-05-18T03:19:07.980Z,7.57
2023-05-18T05:40:14.098Z,11.34
2023-05-18T05:41:20.093Z,11.41
2023-05-18T05:42:22.927Z,11.48
2023-05-18T05:43:25.900Z,11.54
2023-05-18T05:44:28.700Z,11.60
2023-05-18T08:29:12.379Z,13.57
2023-05-18T08:30:15.713Z,13.57
2023-05-18T08:31:18.639Z,13.55
2023-05-18T08:32:21.602Z,13.53
2023-05-18T12:56:01.856Z,21.31
2023-05-18T12:57:10.048Z,21.29
2023-05-18T12:58:18.240Z,21.35
2023-05-18T12:59:21.847Z,21.50
2023-05-18T13:00:24.634Z,21.62
2023-05-18T13:01:28.090Z,21.54
2023-05-18T13:02:32.434Z,21.40
2023-05-18T13:03:35.637Z,21.20
2023-05-18T13:04:38.475Z,21.13
2023-05-18T13:05:42.586Z,21.08
2023-05-18T13:06:45.656Z,20.96
2023-05-18T13:07:48.488Z,20.83
2023-05-18T13:08:55.373Z,20.73
2023-05-18T13:10:02.018Z,20.57
2023-05-18T13:11:13.404Z,20.43
2023-05-18T13:12:17.317Z,20.44
2023-05-18T13:13:20.077Z,20.47
2023-05-18T13:14:23.490Z,20.43
2023-05-18T13:15:26.232Z,20.39
2023-05-18T13:16:30.497Z,20.40
2023-05-18T13:17:33.681Z,20.50
2023-05-18T13:18:36.546Z,20.77
2023-05-18T13:19:39.260Z,21.17
2023-05-18T13:20:45.491Z,21.38
2023-05-18T13:21:55.600Z,21.54
2023-05-18T13:22:59.751Z,21.71
2023-05-18T13:24:03.260Z,21.82
2023-05-18T13:25:06.730Z,21.95
2023-05-18T13:26:09.609Z,22.16
2023-05-18T13:27:12.352Z,22.29
2023-05-18T13:28:16.518Z,22.28
2023-05-18T13:29:19.428Z,22.09
2023-05-18T13:30:22.880Z,21.96
2023-05-18T13:31:25.745Z,21.99
2023-05-18T13:32:28.502Z,22.08
2023-05-18T13:33:31.214Z,22.20
2023-05-18T13:34:34.025Z,22.40
2023-05-18T13:35:37.641Z,22.68
2023-05-18T13:36:41.082Z,22.96
2023-05-18T13:37:45.336Z,23.29
2023-05-18T13:38:49.815Z,23.28
2023-05-18T13:39:52.590Z,23.13
2023-05-18T13:40:55.713Z,23.07
2023-05-18T13:41:59.623Z,23.16
2023-05-18T13:43:02.319Z,23.25
2023-05-18T13:44:05.085Z,23.27
2023-05-18T13:45:08.226Z,23.20
2023-05-18T13:46:11.000Z,23.19
2023-05-18T13:47:13.831Z,23.30
2023-05-18T13:48:16.547Z,23.51
2023-05-18T13:49:19.290Z,23.63
2023-05-18T13:50:23.077Z,23.65
2023-05-18T13:51:25.913Z,23.64
2023-05-18T13:52:28.734Z,23.75
2023-05-18T13:53:31.471Z,23.91
2023-05-18T13:54:34.220Z,24.04
2023-05-18T13:55:37.105Z,24.25
2023-05-18T13:56:40.235Z,24.37
2023-05-18T13:57:43.270Z,24.42
2023-05-18T13:58:46.170Z,24.51
2023-05-18T13:59:48.957Z,24.59
2023-05-18T14:00:53.957Z,24.61
2023-05-18T14:01:56.891Z,24.61
2023-05-18T14:02:59.753Z,24.51
2023-05-18T14:04:02.829Z,24.46
2023-05-18T14:05:08.574Z,24.50
2023-05-18T14:06:11.441Z,24.38
2023-05-18T14:07:14.188Z,24.33
2023-05-18T14:08:16.896Z,24.35
2023-05-18T14:09:19.766Z,24.39
2023-05-18T14:10:22.616Z,24.42
2023-05-18T14:11:25.398Z,24.43
2023-05-18T14:12:28.063Z,24.44
2023-05-18T14:13:30.890Z,24.55
2023-05-18T14:14:33.574Z,24.58
2023-05-18T14:15:36.670Z,24.51
2023-05-18T14:16:39.463Z,24.46
2023-05-18T14:17:42.886Z,24.31
2023-05-18T14:18:45.733Z,24.13
2023-05-18T14:19:48.539Z,24.06
2023-05-18T14:20:51.360Z,24.00
2023-05-18T14:21:54.121Z,23.95
2023-05-18T14:22:57.045Z,23.91
2023-05-18T14:24:03.657Z,23.96
2023-05-18T14:25:06.567Z,23.87
2023-05-18T14:26:09.493Z,23.83
2023-05-18T14:27:12.158Z,23.87
2023-05-18T14:28:14.922Z,24.04
2023-05-18T14:29:17.623Z,24.14
2023-05-18T14:30:20.371Z,24.20
2023-05-18T14:31:23.134Z,24.27
2023-05-18T14:32:25.933Z,24.42
2023-05-18T14:33:28.769Z,24.47
2023-05-18T14:34:31.549Z,24.36
2023-05-18T14:35:34.653Z,24.37
2023-05-18T14:36:37.390Z,24.27
2023-05-18T14:37:40.278Z,24.19
2023-05-18T14:38:43.479Z,24.18
2023-05-18T14:39:46.228Z,24.25
2023-05-18T14:40:48.960Z,24.18
2023-05-18T14:41:51.755Z,24.19
2023-05-18T14:42:54.625Z,24.19
2023-05-18T14:43:57.366Z,24.22
2023-05-18T14:45:00.095Z,24.25
2023-05-18T14:46:08.671Z,24.40
2023-05-18T14:47:11.914Z,24.52
2023-05-18T14:48:14.756Z,24.58
2023-05-18T14:49:17.487Z,24.63
2023-05-18T14:50:20.612Z,24.61
2023-05-18T14:51:24.721Z,24.70
2023-05-18T14:52:27.451Z,24.86
2023-05-18T14:53:30.421Z,25.09
2023-05-18T14:54:33.285Z,25.41
2023-05-18T14:55:36.058Z,25.59
2023-05-18T14:56:38.802Z,25.62
2023-05-18T14:57:41.744Z,25.72
2023-05-18T14:58:44.508Z,25.72
2023-05-18T14:59:47.272Z,25.76
2023-05-18T15:00:50.001Z,25.73
2023-05-18T15:01:52.756Z,25.59
2023-05-18T15:02:56.636Z,25.46
2023-05-18T15:03:59.744Z,25.42
2023-05-18T15:05:02.844Z,25.45
2023-05-18T15:06:05.736Z,25.57
2023-05-18T15:07:08.727Z,25.54
2023-05-18T15:08:11.410Z,25.46
2023-05-18T15:09:15.116Z,25.48
2023-05-18T15:10:17.978Z,25.61
2023-05-18T15:11:22.735Z,25.68
2023-05-18T15:12:25.676Z,25.62
2023-05-18T15:13:28.517Z,25.61
2023-05-18T15:14:31.346Z,25.60
2023-05-18T15:15:34.242Z,25.63
2023-05-18T15:16:37.139Z,25.70
2023-05-18T15:17:40.097Z,25.75
2023-05-18T15:18:43.100Z,25.94
2023-05-18T15:19:47.036Z,25.98
2023-05-18T15:20:49.813Z,25.92
2023-05-18T15:21:52.581Z,25.82
2023-05-18T15:22:55.315Z,25.67
2023-05-18T15:23:58.245Z,25.66
2023-05-18T15:25:01.665Z,25.62
2023-05-18T15:26:05.728Z,25.78
2023-05-18T15:27:10.572Z,25.90
2023-05-18T15:28:14.022Z,25.95
2023-05-18T15:29:16.823Z,25.91
2023-05-18T15:30:19.679Z,25.83
2023-05-18T15:31:22.744Z,25.64
2023-05-18T15:32:28.463Z,25.32
2023-05-18T15:33:32.717Z,24.75
2023-05-18T15:34:35.677Z,24.20
2023-05-18T15:35:39.429Z,23.71
2023-05-18T15:36:42.285Z,23.29
2023-05-18T15:37:45.106Z,22.73
2023-05-18T15:38:47.869Z,22.12
2023-05-18T15:39:50.977Z,21.61
2023-05-18T15:40:54.469Z,21.27
2023-05-18T15:41:57.557Z,20.89
2023-05-18T15:43:01.087Z,20.48
2023-05-18T15:44:04.476Z,20.11
2023-05-18T15:46:32.242Z,19.42
2023-05-18T15:47:35.238Z,19.08
2023-05-18T15:48:38.131Z,18.86
2023-05-18T15:49:40.955Z,18.63
2023-05-18T15:50:43.721Z,18.46
2023-05-18T15:51:46.527Z,18.30
2023-05-18T15:52:49.317Z,18.08
2023-05-18T15:53:52.186Z,17.80
2023-05-18T15:54:54.958Z,17.47
2023-05-18T15:55:59.370Z,17.22
2023-05-18T15:57:02.736Z,17.02
2023-05-18T15:58:05.567Z,16.84
2023-05-18T15:59:08.725Z,16.66
2023-05-18T16:00:11.761Z,16.53
2023-05-18T16:01:14.578Z,16.46
2023-05-18T16:02:17.591Z,16.31
2023-05-18T16:03:20.564Z,16.20
2023-05-18T16:04:23.403Z,16.10
2023-05-18T16:05:26.149Z,15.96
2023-05-18T16:06:29.061Z,15.81
2023-05-18T16:07:31.865Z,15.68
2023-05-18T16:08:34.788Z,15.57
2023-05-18T16:09:37.699Z,15.47
2023-05-18T16:10:41.462Z,15.37
2023-05-18T16:11:44.358Z,15.27
2023-05-18T16:12:47.234Z,15.15
2023-05-18T16:13:50.366Z,15.07
2023-05-18T16:14:53.124Z,14.94
2023-05-18T16:15:56.004Z,14.81
2023-05-18T16:16:58.956Z,14.70
2023-05-18T16:18:02.291Z,14.62
2023-05-18T16:19:07.172Z,14.55
2023-05-18T16:20:10.448Z,14.51
2023-05-18T16:21:13.570Z,14.49
2023-05-18T16:22:16.454Z,14.43
2023-05-18T16:23:19.234Z,14.40
2023-05-18T16:24:22.011Z,14.37
2023-05-18T16:25:25.136Z,14.35
2023-05-18T16:26:27.959Z,14.32
2023-05-18T16:27:31.021Z,14.31
2023-05-18T16:28:33.999Z,14.33
2023-05-18T16:29:36.775Z,14.34
2023-05-18T16:30:42.114Z,14.39
2023-05-18T16:31:45.069Z,14.40
2023-05-18T16:32:48.170Z,14.38
2023-05-18T16:33:51.069Z,14.32
2023-05-18T16:34:53.770Z,14.22
2023-05-18T16:35:58.345Z,14.09
2023-05-18T16:37:01.132Z,13.98
2023-05-18T16:38:04.042Z,13.89
2023-05-18T16:39:07.863Z,13.80
2023-05-18T16:40:10.973Z,13.71
2023-05-18T16:41:14.813Z,13.62
2023-05-18T16:42:18.536Z,13.56
2023-05-18T16:43:21.555Z,13.52
2023-05-18T16:44:24.384Z,13.51
2023-05-18T16:45:27.993Z,13.46
2023-05-18T16:46:30.836Z,13.41
2023-05-18T16:47:33.839Z,13.38
2023-05-18T16:48:37.083Z,13.33
2023-05-18T16:49:40.053Z,13.27
2023-05-18T16:50:42.849Z,13.20
2023-05-18T16:51:45.755Z,13.13
2023-05-18T16:52:48.590Z,13.05
2023-05-18T16:53:52.420Z,12.99
2023-05-18T16:54:55.301Z,12.93
2023-05-18T16:55:58.018Z,12.89
2023-05-18T16:57:01.517Z,12.85
2023-05-18T16:58:04.350Z,12.81
2023-05-18T16:59:07.718Z,12.77
2023-05-18T17:00:11.433Z,12.72
2023-05-18T17:01:26.564Z,12.66
2023-05-18T17:02:31.013Z,12.62
2023-05-18T17:03:37.965Z,12.59
2023-05-18T17:04:49.705Z,12.55
2023-05-18T17:05:53.067Z,12.49
2023-05-18T17:06:55.948Z,12.44
2023-05-18T17:07:58.822Z,12.40
2023-05-18T17:09:02.324Z,12.38
2023-05-18T17:10:06.942Z,12.34
2023-05-18T17:11:09.796Z,12.29
2023-05-18T17:12:12.607Z,12.28
2023-05-18T17:13:15.570Z,12.26
2023-05-18T17:14:18.609Z,12.24
2023-05-18T17:15:21.394Z,12.24
2023-05-18T17:16:26.495Z,12.21
2023-05-18T17:17:29.440Z,12.18
2023-05-18T17:18:32.381Z,12.15
2023-05-18T17:19:35.553Z,12.11
2023-05-18T17:20:38.358Z,12.08
2023-05-18T17:21:41.403Z,12.07
2023-05-18T17:22:44.151Z,12.05
2023-05-18T17:23:46.995Z,12.05
2023-05-18T17:24:49.689Z,12.06
2023-05-18T17:25:55.100Z,12.05
2023-05-18T17:27:04.264Z,12.06
2023-05-18T17:28:07.059Z,12.07
2023-05-18T17:29:09.974Z,12.06
2023-05-18T17:30:12.747Z,12.05
2023-05-18T17:31:15.756Z,12.05
2023-05-18T17:32:18.531Z,12.04
2023-05-18T17:33:21.374Z,12.03
2023-05-18T17:34:26.667Z,12.00
2023-05-18T17:35:29.485Z,11.97
2023-05-18T17:36:32.222Z,11.96
2023-05-18T17:37:34.996Z,11.92
2023-05-18T17:38:37.727Z,11.89
2023-05-18T17:39:40.579Z,11.86
2023-05-18T17:40:43.487Z,11.86
2023-05-18T17:41:46.659Z,11.87
2023-05-18T17:42:49.451Z,11.88
2023-05-18T17:43:52.195Z,11.88
2023-05-18T17:44:54.937Z,11.89
2023-05-18T17:45:57.686Z,11.88
2023-05-18T17:47:01.531Z,11.87
2023-05-18T17:48:04.562Z,11.83
2023-05-18T17:49:07.585Z,11.80
2023-05-18T17:50:10.635Z,11.77
2023-05-18T17:51:13.394Z,11.76
2023-05-18T17:52:16.198Z,11.72
2023-05-18T17:53:19.314Z,11.71
2023-05-18T17:54:22.498Z,11.69
2023-05-18T17:55:25.274Z,11.69
2023-05-18T17:56:28.205Z,11.68
2023-05-18T17:57:32.159Z,11.65
2023-05-18T17:58:38.781Z,11.63
2023-05-18T17:59:41.616Z,11.64
2023-05-18T18:00:44.482Z,11.66
2023-05-18T18:01:47.290Z,11.68
2023-05-18T18:02:50.409Z,11.65
2023-05-18T18:03:53.410Z,11.61
2023-05-18T18:04:56.236Z,11.58
2023-05-18T18:05:59.108Z,11.54
2023-05-18T18:07:01.898Z,11.51
2023-05-18T18:08:04.652Z,11.48
2023-05-18T18:09:07.461Z,11.44
2023-05-18T18:10:10.518Z,11.43
2023-05-18T18:11:13.446Z,11.41
2023-05-18T18:12:17.056Z,11.39
2023-05-18T18:13:19.851Z,11.38
2023-05-18T18:14:22.832Z,11.36
2023-05-18T18:15:27.477Z,11.33
2023-05-18T18:16:30.339Z,11.30
2023-05-18T18:17:33.529Z,11.29
2023-05-18T18:18:36.777Z,11.30
2023-05-18T18:19:39.584Z,11.28
2023-05-18T18:20:42.338Z,11.26
2023-05-18T18:21:45.077Z,11.24
2023-05-18T18:22:47.940Z,11.20
2023-05-18T18:23:50.843Z,11.16
2023-05-18T18:24:53.580Z,11.16
2023-05-18T18:25:56.412Z,11.14
2023-05-18T18:26:59.319Z,11.11
2023-05-18T18:28:02.096Z,11.09
2023-05-18T18:29:04.950Z,11.06
2023-05-18T18:30:08.576Z,11.04
2023-05-18T18:31:11.565Z,11.03
2023-05-18T18:32:14.500Z,11.00
2023-05-18T18:33:17.470Z,10.98
2023-05-18T18:34:20.420Z,10.96
2023-05-18T18:35:23.181Z,10.93
2023-05-18T18:36:26.536Z,10.89
2023-05-18T18:37:29.357Z,10.87
2023-05-18T18:38:33.885Z,10.87
2023-05-18T18:39:36.874Z,10.86
2023-05-18T18:40:39.814Z,10.86
2023-05-18T18:41:43.032Z,10.84
2023-05-18T18:42:47.344Z,10.81
2023-05-18T18:43:53.840Z,10.78
2023-05-18T18:44:56.866Z,10.75
2023-05-18T18:45:59.933Z,10.72
2023-05-18T18:47:02.796Z,10.69
2023-05-18T18:48:05.794Z,10.67
2023-05-18T18:49:08.847Z,10.64
2023-05-18T18:50:11.896Z,10.61
2023-05-18T18:51:14.763Z,10.59
2023-05-18T18:52:17.641Z,10.56
2023-05-18T18:53:20.598Z,10.54
2023-05-18T18:54:23.479Z,10.53
2023-05-18T18:55:26.673Z,10.51
2023-05-18T18:56:29.492Z,10.48
2023-05-18T18:57:33.483Z,10.47
2023-05-18T18:58:36.333Z,10.45
2023-05-18T18:59:39.338Z,10.44
2023-05-18T19:00:42.264Z,10.43
2023-05-18T19:01:45.052Z,10.43
2023-05-18T19:02:47.889Z,10.43
2023-05-18T19:03:52.645Z,10.41
2023-05-18T19:04:55.822Z,10.39
2023-05-18T19:05:59.098Z,10.37
2023-05-18T19:07:03.265Z,10.35
2023-05-18T19:08:06.845Z,10.33
2023-05-18T19:09:09.712Z,10.30
2023-05-18T19:10:12.532Z,10.29
2023-05-18T19:11:15.379Z,10.29
2023-05-18T19:12:18.816Z,10.28
2023-05-18T19:13:21.742Z,10.29
2023-05-18T19:14:24.723Z,10.29
2023-05-18T19:15:27.920Z,10.28
2023-05-18T19:16:31.278Z,10.28
2023-05-18T19:17:34.073Z,10.26
2023-05-18T19:18:36.871Z,10.24
2023-05-18T19:19:39.794Z,10.22
2023-05-18T19:20:42.810Z,10.21
2023-05-18T19:21:47.119Z,10.20
2023-05-18T19:22:49.871Z,10.18
2023-05-18T19:23:52.713Z,10.17
2023-05-18T19:24:55.527Z,10.17
2023-05-18T19:25:59.525Z,10.17
2023-05-18T19:27:02.679Z,10.16
2023-05-18T19:28:05.444Z,10.16
2023-05-18T19:29:08.301Z,10.14
2023-05-18T19:30:13.176Z,10.14
2023-05-18T19:31:16.045Z,10.12
2023-05-18T19:32:18.949Z,10.11
2023-05-18T19:33:22.317Z,10.10
2023-05-18T19:34:25.138Z,10.07
2023-05-18T19:35:27.882Z,10.06
2023-05-18T19:36:31.490Z,10.05
2023-05-18T19:37:34.305Z,10.04
2023-05-18T19:38:37.030Z,10.03
2023-05-18T19:39:39.872Z,10.02
2023-05-18T19:40:42.895Z,10.02
2023-05-18T19:41:46.047Z,10.02
2023-05-18T19:42:49.233Z,10.03
2023-05-18T19:43:52.333Z,10.01
2023-05-18T19:44:55.094Z,10.01
2023-05-18T19:45:57.931Z,10.00
2023-05-18T19:47:00.684Z,10.00
2023-05-18T19:48:03.529Z,9.99
2023-05-18T19:49:10.179Z,9.98
2023-05-18T19:50:13.277Z,9.97
2023-05-18T19:51:16.150Z,9.96
2023-05-18T19:52:19.987Z,9.95
2023-05-18T19:53:23.096Z,9.94
2023-05-18T19:54:25.832Z,9.93
2023-05-18T19:55:28.628Z,9.92
2023-05-18T19:56:31.474Z,9.92
2023-05-18T19:57:34.243Z,9.90
2023-05-18T19:58:37.222Z,9.88
2023-05-18T19:59:39.964Z,9.88
2023-05-18T20:00:42.713Z,9.87
2023-05-18T20:01:46.533Z,9.86
2023-05-18T20:02:49.482Z,9.83
2023-05-18T20:03:53.279Z,9.81
2023-05-18T20:04:56.094Z,9.80
2023-05-18T20:05:58.923Z,9.79
2023-05-18T20:07:01.889Z,9.77
2023-05-18T20:08:05.042Z,9.77
2023-05-18T20:09:07.786Z,9.77
2023-05-18T20:10:10.554Z,9.76
2023-05-18T20:11:14.743Z,9.76
2023-05-18T20:12:17.796Z,9.75
2023-05-18T20:13:20.807Z,9.75
2023-05-18T20:14:23.707Z,9.75
2023-05-18T20:48:57.481Z,9.51
2023-05-18T20:50:00.343Z,9.49
2023-05-18T20:51:03.353Z,9.49
2023-05-18T20:52:06.250Z,9.49
2023-05-18T20:53:09.085Z,9.49
2023-05-18T20:54:11.756Z,9.50
2023-05-18T20:55:15.022Z,9.49
2023-05-18T20:56:18.966Z,9.49
2023-05-18T20:57:21.748Z,9.47
2023-05-18T20:58:26.465Z,9.45
2023-05-18T20:59:29.194Z,9.44
2023-05-18T21:00:32.226Z,9.43
2023-05-18T21:01:39.087Z,9.43
2023-05-18T21:02:45.110Z,9.42
2023-05-18T21:03:48.436Z,9.41
2023-05-18T21:04:51.185Z,9.40
2023-05-18T21:05:54.017Z,9.39
2023-05-18T21:06:56.744Z,9.38
2023-05-18T21:07:59.509Z,9.37
2023-05-18T21:09:02.222Z,9.36
2023-05-18T21:10:05.154Z,9.35
2023-05-18T21:11:08.056Z,9.34
2023-05-18T21:12:10.837Z,9.33
2023-05-18T21:13:13.902Z,9.32
2023-05-18T21:14:16.632Z,9.31
2023-05-18T21:15:20.067Z,9.29
2023-05-18T21:16:22.771Z,9.28
2023-05-18T21:17:26.269Z,9.27
2023-05-18T21:18:28.983Z,9.25
2023-05-18T21:19:31.787Z,9.22
2023-05-18T21:20:34.651Z,9.20
2023-05-18T21:21:37.484Z,9.19
2023-05-18T21:22:40.275Z,9.18
2023-05-18T21:23:43.170Z,9.16
2023-05-18T21:24:45.949Z,9.14
2023-05-18T21:25:48.680Z,9.12
2023-05-18T21:26:51.556Z,9.12
2023-05-18T21:27:54.276Z,9.12
2023-05-18T21:28:57.639Z,9.09
2023-05-18T21:30:00.347Z,9.06
2023-05-18T21:31:04.157Z,9.04
2023-05-18T21:32:07.147Z,9.04
2023-05-18T21:33:10.094Z,9.04
2023-05-18T21:34:13.850Z,9.04
2023-05-18T21:35:16.735Z,9.04
2023-05-18T21:36:34.884Z,9.04
2023-05-18T21:37:37.649Z,9.02
2023-05-18T21:38:40.460Z,9.00
2023-05-18T21:39:44.086Z,8.98
2023-05-18T21:40:47.017Z,8.96
2023-05-18T21:41:49.720Z,8.96
2023-05-18T21:42:52.469Z,8.96
2023-05-18T21:43:55.292Z,8.97
2023-05-18T21:44:58.052Z,8.96
2023-05-18T21:46:00.859Z,8.95
2023-05-18T21:47:03.801Z,8.94
2023-05-18T21:48:06.680Z,8.94
2023-05-18T21:49:09.499Z,8.93
2023-05-18T21:50:12.276Z,8.91
2023-05-18T21:51:15.707Z,8.90
2023-05-18T21:52:18.479Z,8.89
2023-05-18T21:53:21.264Z,8.88
2023-05-18T21:54:24.272Z,8.88
2023-05-18T21:55:27.056Z,8.86
2023-05-18T21:56:29.897Z,8.85
2023-05-18T21:57:32.911Z,8.84
2023-05-18T21:58:35.723Z,8.79
2023-05-18T21:59:38.543Z,8.74
2023-05-18T22:00:41.281Z,8.71
2023-05-18T22:01:44.043Z,8.70
2023-05-18T22:02:46.823Z,8.68
2023-05-18T22:03:52.937Z,8.66
2023-05-18T22:04:55.705Z,8.64
2023-05-18T22:05:58.634Z,8.62
2023-05-18T22:07:01.946Z,8.60
2023-05-18T22:08:04.741Z,8.58
2023-05-18T22:09:07.463Z,8.57
2023-05-18T22:10:11.261Z,8.55
2023-05-18T22:11:14.358Z,8.50
2023-05-18T22:12:17.150Z,8.48
2023-05-18T22:13:19.833Z,8.47
2023-05-18T22:14:22.639Z,8.47
2023-05-18T22:15:25.578Z,8.47
2023-05-18T22:16:28.645Z,8.47
2023-05-18T22:17:31.575Z,8.47
2023-05-18T22:18:34.300Z,8.47
2023-05-18T22:19:36.992Z,8.47
2023-05-18T22:20:39.742Z,8.46
2023-05-18T22:21:42.888Z,8.45
2023-05-18T22:22:45.638Z,8.43
2023-05-18T22:23:48.333Z,8.39
2023-05-18T22:24:51.304Z,8.37
2023-05-18T22:25:54.041Z,8.36
2023-05-18T22:26:56.807Z,8.36
2023-05-18T22:27:59.821Z,8.35
2023-05-18T22:29:02.603Z,8.33
2023-05-18T22:30:06.352Z,8.32
2023-05-18T22:31:09.140Z,8.31
2023-05-18T22:32:12.235Z,8.28
2023-05-18T22:33:15.202Z,8.26
2023-05-18T22:34:18.000Z,8.25
2023-05-18T22:35:20.775Z,8.25
2023-05-18T22:36:23.852Z,8.24
2023-05-18T22:37:26.681Z,8.22
2023-05-18T22:38:29.650Z,8.20
2023-05-18T22:39:32.438Z,8.18
2023-05-18T22:40:35.205Z,8.17
2023-05-18T22:41:37.918Z,8.16
2023-05-18T22:42:40.866Z,8.16
2023-05-18T22:43:43.624Z,8.16
2023-05-18T22:44:46.403Z,8.16
2023-05-18T22:45:49.436Z,8.14
2023-05-18T22:46:52.889Z,8.12
2023-05-18T22:47:55.990Z,8.11
2023-05-18T22:48:59.156Z,8.09
2023-05-18T22:50:01.928Z,8.09
2023-05-18T22:51:06.440Z,8.09
2023-05-18T22:52:10.325Z,8.08
2023-05-18T22:53:13.934Z,8.08
2023-05-18T22:54:16.757Z,8.06
2023-05-18T22:55:19.532Z,8.04
2023-05-18T22:56:22.373Z,8.03
2023-05-18T22:57:25.284Z,8.02
2023-05-18T22:58:28.020Z,8.02
2023-05-18T22:59:30.752Z,8.01
2023-05-18T23:00:33.552Z,7.97
2023-05-18T23:01:37.929Z,7.95
2023-05-18T23:02:41.287Z,7.93
2023-05-18T23:03:44.204Z,7.92
2023-05-18T23:04:46.986Z,7.90
2023-05-18T23:05:49.837Z,7.86
2023-05-18T23:06:54.125Z,7.83
2023-05-18T23:07:58.279Z,7.80
2023-05-18T23:09:01.149Z,7.79
2023-05-18T23:10:05.207Z,7.79
2023-05-18T23:11:07.897Z,7.77
2023-05-18T23:12:11.211Z,7.74
2023-05-18T23:13:17.023Z,7.70
2023-05-18T23:14:20.112Z,7.67
2023-05-18T23:15:23.282Z,7.65
2023-05-18T23:16:26.631Z,7.63
2023-05-18T23:17:29.968Z,7.63
2023-05-18T23:18:32.719Z,7.62
2023-05-18T23:19:36.308Z,7.58
2023-05-18T23:20:39.120Z,7.58
2023-05-18T23:21:41.852Z,7.57
2023-05-18T23:22:44.600Z,7.56
2023-05-18T23:23:47.548Z,7.55
2023-05-18T23:24:50.335Z,7.55
2023-05-18T23:25:53.068Z,7.55
2023-05-18T23:26:56.772Z,7.55
2023-05-18T23:27:59.462Z,7.55
2023-05-18T23:29:02.395Z,7.53
2023-05-18T23:30:05.568Z,7.51
2023-05-18T23:31:08.300Z,7.50
2023-05-18T23:32:11.095Z,7.48
2023-05-18T23:33:14.885Z,7.47
2023-05-18T23:34:18.096Z,7.46
2023-05-18T23:35:21.172Z,7.44
2023-05-18T23:36:27.497Z,7.44
2023-05-18T23:37:35.136Z,7.45
2023-05-18T23:38:41.007Z,7.44
2023-05-18T23:39:45.508Z,7.42
2023-05-18T23:40:48.964Z,7.41
2023-05-18T23:41:52.159Z,7.41
2023-05-18T23:42:55.074Z,7.41
2023-05-18T23:43:57.993Z,7.41
2023-05-18T23:45:00.916Z,7.40
2023-05-18T23:46:05.094Z,7.39
2023-05-18T23:47:08.104Z,7.38
2023-05-18T23:48:11.368Z,7.37
2023-05-18T23:49:14.200Z,7.36
2023-05-18T23:50:17.156Z,7.35
2023-05-18T23:51:23.141Z,7.34
2023-05-18T23:52:29.455Z,7.32
2023-05-18T23:53:32.313Z,7.32
2023-05-18T23:54:37.467Z,7.31
2023-05-18T23:55:41.493Z,7.31
2023-05-18T23:56:44.445Z,7.29
2023-05-18T23:57:48.251Z,7.28
2023-05-18T23:58:51.035Z,7.27
2023-05-18T23:59:55.301Z,7.26
